createdAt,value
2023-01-28T00:01:11.971Z,3.59
2023-01-28T00:03:40.218Z,3.70
2023-01-28T00:06:10.832Z,3.66
2023-01-28T00:08:38.992Z,3.74
2023-01-28T00:11:07.577Z,3.69
2023-01-28T00:13:36.397Z,3.91
2023-01-28T00:16:06.383Z,4.13
2023-01-28T00:18:34.897Z,4.06
2023-01-28T00:21:08.372Z,4.04
2023-01-28T00:23:37.401Z,4.06
2023-01-28T00:26:07.747Z,3.85
2023-01-28T00:28:35.963Z,3.88
2023-01-28T00:31:09.705Z,3.99
2023-01-28T00:33:37.955Z,3.75
2023-01-28T00:36:06.939Z,3.59
2023-01-28T00:38:35.365Z,3.64
2023-01-28T00:41:11.164Z,3.53
2023-01-28T00:43:39.283Z,3.60
2023-01-28T00:46:08.695Z,3.79
2023-01-28T00:48:37.447Z,4.16
2023-01-28T00:51:12.770Z,4.35
2023-01-28T00:53:41.141Z,4.20
2023-01-28T00:56:11.433Z,4.08
2023-01-28T00:58:39.457Z,3.78
2023-01-28T01:01:09.606Z,3.72
2023-01-28T01:03:38.193Z,3.93
2023-01-28T01:06:07.562Z,4.29
2023-01-28T01:08:43.243Z,4.27
2023-01-28T01:11:12.067Z,4.30
2023-01-28T01:13:40.384Z,4.14
2023-01-28T01:16:16.689Z,4.38
2023-01-28T01:18:44.899Z,4.62
2023-01-28T01:21:16.379Z,4.51
2023-01-28T01:23:46.225Z,4.59
2023-01-28T01:26:14.348Z,4.43
2023-01-28T01:28:42.719Z,4.30
2023-01-28T01:31:14.078Z,3.89
2023-01-28T01:33:42.696Z,4.16
2023-01-28T01:36:11.616Z,4.31
2023-01-28T01:38:41.092Z,4.21
2023-01-28T01:41:10.559Z,4.42
2023-01-28T01:43:56.045Z,4.38
2023-01-28T01:46:43.981Z,4.17
2023-01-28T01:49:24.047Z,4.29
2023-01-28T01:51:57.468Z,4.10
2023-01-28T01:54:25.700Z,3.95
2023-01-28T01:56:54.011Z,4.02
2023-01-28T01:59:24.908Z,4.16
2023-01-28T02:01:52.982Z,4.31
2023-01-28T02:04:26.515Z,4.28
2023-01-28T05:54:35.803Z,-0.26
2023-01-28T05:57:04.412Z,1.25
2023-01-28T05:59:32.561Z,1.48
2023-01-28T06:02:04.640Z,1.52
2023-01-28T06:04:33.804Z,1.72
2023-01-28T06:07:02.228Z,1.86
2023-01-28T06:09:32.831Z,1.83
2023-01-28T06:12:01.015Z,2.10
2023-01-28T06:14:30.410Z,2.20
2023-01-28T06:17:13.022Z,2.25
2023-01-28T06:20:06.138Z,2.19
2023-01-28T06:22:37.849Z,2.29
2023-01-28T06:25:07.054Z,2.38
2023-01-28T06:27:40.743Z,2.35
2023-01-28T06:30:10.043Z,2.64
2023-01-28T06:32:38.113Z,2.64
2023-01-28T06:35:07.505Z,2.52
2023-01-28T06:37:35.457Z,2.56
2023-01-28T06:40:04.172Z,2.55
2023-01-28T06:42:33.221Z,2.19
2023-01-28T06:45:01.246Z,2.07
2023-01-28T06:47:29.730Z,1.86
2023-01-28T06:49:57.771Z,2.01
2023-01-28T06:52:25.720Z,2.26
2023-01-28T06:54:53.794Z,2.43
2023-01-28T06:57:21.770Z,2.26
2023-01-28T06:59:50.070Z,2.29
2023-01-28T07:02:18.252Z,2.40
2023-01-28T07:04:46.636Z,2.53
2023-01-28T07:07:14.630Z,2.40
2023-01-28T07:09:42.666Z,2.20
2023-01-28T07:12:11.118Z,2.24
2023-01-28T07:14:39.432Z,2.38
2023-01-28T07:17:09.663Z,2.60
2023-01-28T07:19:37.821Z,2.79
2023-01-28T07:22:05.927Z,2.74
2023-01-28T07:24:35.106Z,2.84
2023-01-28T07:27:04.685Z,2.61
2023-01-28T07:29:34.204Z,2.60
2023-01-28T07:32:02.455Z,2.32
2023-01-28T07:34:30.656Z,2.34
2023-01-28T07:36:58.795Z,2.39
2023-01-28T07:39:26.973Z,2.67
2023-01-28T07:41:55.046Z,3.11
2023-01-28T07:44:34.710Z,3.04
2023-01-28T07:47:06.088Z,3.02
2023-01-28T07:49:34.720Z,2.95
2023-01-28T07:52:07.953Z,3.25
2023-01-28T07:54:36.881Z,3.16
2023-01-28T07:57:09.930Z,3.24
2023-01-28T07:59:38.007Z,3.05
2023-01-28T08:02:06.307Z,3.02
2023-01-28T08:04:35.354Z,3.20
2023-01-28T08:07:03.465Z,3.71
2023-01-28T08:09:34.483Z,3.78
2023-01-28T08:12:02.840Z,3.24
2023-01-28T08:14:31.442Z,3.44
2023-01-28T08:16:59.624Z,3.52
2023-01-28T08:19:27.688Z,3.70
2023-01-28T08:21:55.834Z,3.43
2023-01-28T08:24:23.988Z,3.60
2023-01-28T08:26:52.219Z,3.46
2023-01-28T08:29:20.481Z,3.49
2023-01-28T08:31:48.807Z,3.56
2023-01-28T08:34:16.973Z,3.77
2023-01-28T08:36:45.619Z,3.69
2023-01-28T08:39:14.102Z,3.92
2023-01-28T08:41:42.173Z,3.99
2023-01-28T08:44:10.530Z,3.70
2023-01-28T08:46:38.624Z,4.01
2023-01-28T08:49:06.545Z,4.29
2023-01-28T08:51:36.304Z,4.45
2023-01-28T08:54:04.449Z,4.60
2023-01-28T08:56:33.060Z,4.84
2023-01-28T08:59:01.227Z,4.79
2023-01-28T09:01:29.685Z,5.14
2023-01-28T09:03:57.741Z,4.93
2023-01-28T09:06:26.686Z,5.25
2023-01-28T09:09:00.119Z,5.41
2023-01-28T09:11:28.786Z,5.42
2023-01-28T09:13:59.903Z,5.61
2023-01-28T09:16:28.016Z,5.60
2023-01-28T09:18:56.491Z,5.47
2023-01-28T09:21:24.688Z,5.29
2023-01-28T09:23:55.730Z,5.40
2023-01-28T09:26:23.773Z,5.58
2023-01-28T09:28:52.120Z,5.54
2023-01-28T09:31:20.391Z,5.30
2023-01-28T09:33:54.793Z,5.33
2023-01-28T09:36:22.779Z,5.76
2023-01-28T09:38:52.405Z,5.90
2023-01-28T09:41:45.774Z,6.01
2023-01-28T09:44:43.302Z,6.16
2023-01-28T09:47:26.088Z,5.99
2023-01-28T09:49:54.522Z,6.18
2023-01-28T09:52:23.599Z,6.19
2023-01-28T09:55:03.969Z,6.32
2023-01-28T09:57:42.115Z,6.60
2023-01-28T12:04:20.109Z,12.76
2023-01-28T12:06:56.373Z,13.95
2023-01-28T12:09:35.593Z,14.13
2023-01-28T12:12:17.508Z,14.79
2023-01-28T12:15:05.828Z,15.12
2023-01-28T12:17:58.065Z,15.06
2023-01-28T12:20:32.637Z,15.14
2023-01-28T12:23:31.917Z,15.40
2023-01-28T12:26:35.712Z,15.65
2023-01-28T12:29:24.021Z,15.80
2023-01-28T12:32:06.773Z,15.20
2023-01-28T12:34:56.552Z,14.66
2023-01-28T12:37:34.034Z,14.93
2023-01-28T12:40:08.539Z,15.55
2023-01-28T12:42:56.428Z,15.67
2023-01-28T12:45:27.248Z,14.91
2023-01-28T12:47:56.610Z,14.29
2023-01-28T12:50:32.192Z,14.26
2023-01-28T12:53:12.387Z,14.47
2023-01-28T12:55:47.679Z,14.85
2023-01-28T12:58:18.359Z,15.08
2023-01-28T13:00:48.200Z,15.32
2023-01-28T13:03:24.722Z,15.73
2023-01-28T13:06:17.253Z,15.43
2023-01-28T13:08:43.911Z,15.33
2023-01-28T13:11:14.701Z,15.20
2023-01-28T13:13:41.793Z,15.17
2023-01-28T13:16:09.566Z,15.12
2023-01-28T13:18:38.950Z,15.33
2023-01-28T13:21:15.579Z,15.55
2023-01-28T13:23:46.850Z,15.04
2023-01-28T13:26:19.424Z,13.97
2023-01-28T13:28:47.072Z,12.96
2023-01-28T13:31:18.680Z,12.86
2023-01-28T13:34:06.676Z,13.05
2023-01-28T13:36:39.667Z,12.62
2023-01-28T13:39:13.659Z,12.50
2023-01-28T13:41:41.934Z,11.94
2023-01-28T13:44:27.323Z,11.99
2023-01-28T13:46:58.770Z,11.70
2023-01-28T13:49:49.913Z,11.75
2023-01-28T13:52:28.093Z,11.85
2023-01-28T13:54:58.577Z,12.09
2023-01-28T13:57:31.338Z,12.24
2023-01-28T14:00:25.173Z,12.18
2023-01-28T14:02:58.341Z,11.76
2023-01-28T14:06:03.043Z,11.10
2023-01-28T14:08:52.167Z,10.94
2023-01-28T14:11:46.379Z,10.67
2023-01-28T14:14:38.100Z,10.46
2023-01-28T14:17:36.108Z,10.06
2023-01-28T14:20:03.479Z,10.26
2023-01-28T14:22:30.390Z,10.22
2023-01-28T14:24:58.557Z,9.97
2023-01-28T14:27:36.768Z,9.64
2023-01-28T14:30:27.387Z,9.66
2023-01-28T14:32:54.483Z,9.41
2023-01-28T14:35:33.420Z,8.88
2023-01-28T14:38:00.654Z,9.35
2023-01-28T14:40:28.116Z,9.32
2023-01-28T14:42:54.962Z,9.05
2023-01-28T14:45:46.787Z,8.71
2023-01-28T14:48:26.802Z,8.54
2023-01-28T14:51:21.680Z,8.31
2023-01-28T14:54:03.535Z,8.33
2023-01-28T14:57:00.631Z,8.01
2023-01-28T14:59:49.253Z,7.98
2023-01-28T15:02:21.241Z,7.97
2023-01-28T15:04:48.881Z,7.63
2023-01-28T15:07:23.723Z,7.03
2023-01-28T15:10:04.511Z,6.83
2023-01-28T15:12:38.887Z,6.86
2023-01-28T15:15:18.061Z,6.90
2023-01-28T15:17:45.981Z,6.76
2023-01-28T15:20:18.500Z,6.80
2023-01-28T15:22:45.227Z,6.90
2023-01-28T15:25:22.105Z,6.93
2023-01-28T15:27:49.920Z,7.12
2023-01-28T15:30:25.313Z,7.17
2023-01-28T15:33:05.574Z,6.89
2023-01-28T15:35:33.025Z,7.08
2023-01-28T15:37:59.799Z,6.79
2023-01-28T15:40:27.308Z,6.66
2023-01-28T15:42:54.406Z,6.71
2023-01-28T15:45:24.802Z,6.78
2023-01-28T15:47:52.659Z,7.08
2023-01-28T15:50:23.527Z,6.96
2023-01-28T15:52:50.529Z,6.96
2023-01-28T15:55:26.535Z,6.55
2023-01-28T15:57:53.151Z,6.21
2023-01-28T16:00:20.812Z,6.13
2023-01-28T16:02:49.721Z,6.19
2023-01-28T16:05:30.853Z,6.17
2023-01-28T16:07:58.328Z,6.01
2023-01-28T16:10:26.688Z,5.72
2023-01-28T16:13:06.554Z,5.80
2023-01-28T16:15:33.587Z,5.79
2023-01-28T16:18:00.142Z,5.82
2023-01-28T16:20:28.407Z,5.88
2023-01-28T16:22:57.645Z,5.70
2023-01-28T16:25:29.696Z,5.60
2023-01-28T16:27:57.472Z,4.84
2023-01-28T16:30:24.393Z,4.80
2023-01-28T16:32:51.411Z,5.10
2023-01-28T16:35:19.997Z,5.30
2023-01-28T16:37:47.634Z,5.32
2023-01-28T16:40:16.455Z,5.04
2023-01-28T16:42:44.187Z,4.98
2023-01-28T16:45:16.036Z,4.74
2023-01-28T16:47:43.121Z,4.05
2023-01-28T16:50:13.524Z,4.01
2023-01-28T16:52:41.536Z,3.93
2023-01-28T16:55:16.246Z,4.08
2023-01-28T16:57:44.046Z,4.31
2023-01-28T17:00:24.460Z,4.61
2023-01-28T17:02:52.062Z,4.85
2023-01-28T17:05:20.425Z,5.00
2023-01-28T17:07:49.693Z,5.15
2023-01-28T17:10:17.078Z,5.43
2023-01-28T17:12:44.215Z,5.56
2023-01-28T17:15:11.039Z,5.23
2023-01-28T17:17:38.722Z,4.69
2023-01-28T17:20:06.454Z,3.97
2023-01-28T17:22:33.302Z,3.91
2023-01-28T17:25:00.184Z,4.03
2023-01-28T17:27:27.773Z,4.21
2023-01-28T17:29:54.517Z,4.37
2023-01-28T17:32:21.268Z,4.28
2023-01-28T17:34:47.911Z,3.94
2023-01-28T17:37:18.176Z,4.17
2023-01-28T17:39:45.012Z,4.35
2023-01-28T17:42:11.590Z,4.22
2023-01-28T17:44:39.181Z,4.31
2023-01-28T17:47:06.967Z,4.25
2023-01-28T17:49:34.031Z,4.10
2023-01-28T17:52:00.724Z,4.08
2023-01-28T17:54:28.214Z,4.10
2023-01-28T17:56:55.435Z,4.19
2023-01-28T22:04:50.001Z,-2.41
2023-01-28T22:07:17.807Z,-0.87
2023-01-28T22:09:45.568Z,-0.59
2023-01-28T22:12:14.582Z,-0.77
2023-01-28T22:14:42.546Z,-0.80
2023-01-28T22:17:11.155Z,-0.75
2023-01-28T22:19:38.229Z,-0.64
2023-01-28T22:22:05.146Z,-0.43
2023-01-28T22:24:31.857Z,-0.46
2023-01-28T22:26:59.067Z,-0.33
2023-01-28T22:29:25.846Z,-0.42
2023-01-28T22:31:53.429Z,-0.47
2023-01-28T22:34:20.244Z,-0.64
2023-01-28T22:36:47.039Z,-0.64
2023-01-28T22:39:14.927Z,-0.37
2023-01-28T22:41:41.653Z,-0.41
2023-01-28T22:44:08.769Z,-0.35
2023-01-28T22:46:35.550Z,-0.22
2023-01-28T22:49:02.594Z,-0.16
2023-01-28T22:51:31.270Z,-0.27
2023-01-28T22:53:58.439Z,-0.29
2023-01-28T22:56:26.321Z,-0.09
2023-01-28T22:58:55.967Z,-0.08
2023-01-28T23:01:22.857Z,-0.16
2023-01-28T23:03:50.088Z,-0.55
2023-01-28T23:06:21.474Z,-0.73
2023-01-28T23:08:48.605Z,-0.55
2023-01-28T23:11:22.241Z,-0.49
2023-01-28T23:14:07.888Z,-0.43
2023-01-28T23:16:53.710Z,-0.37
2023-01-28T23:19:39.627Z,-0.27
2023-01-28T23:22:30.447Z,-0.24
2023-01-28T23:24:57.164Z,-0.14
2023-01-28T23:27:23.749Z,-0.19
2023-01-28T23:29:52.385Z,0.01
2023-01-28T23:32:19.063Z,0.01
2023-01-28T23:34:45.653Z,-0.01
2023-01-28T23:37:12.451Z,0.11
2023-01-28T23:39:39.901Z,0.16
2023-01-28T23:42:23.236Z,0.29
2023-01-28T23:44:53.357Z,0.55
2023-01-28T23:47:19.919Z,0.47
2023-01-28T23:49:47.107Z,0.59
2023-01-28T23:52:15.983Z,0.58
2023-01-28T23:54:42.649Z,0.48
2023-01-28T23:57:09.305Z,0.40
2023-01-28T23:59:36.147Z,0.33
